createdAt,value
2018-11-14T00:00:08.993Z,46.93
2018-11-14T00:02:34.978Z,46.86
2018-11-14T00:05:01.103Z,46.83
2018-11-14T00:07:27.112Z,46.82
2018-11-14T00:09:53.124Z,46.80
2018-11-14T00:12:19.106Z,46.77
2018-11-14T00:14:45.098Z,46.77
2018-11-14T00:17:11.072Z,46.69
2018-11-14T00:19:37.056Z,46.68
2018-11-14T00:22:03.042Z,46.63
2018-11-14T00:24:29.101Z,46.54
2018-11-14T00:26:55.049Z,46.47
2018-11-14T00:29:21.066Z,46.45
2018-11-14T00:31:47.024Z,46.43
2018-11-14T00:34:13.014Z,46.43
2018-11-14T00:36:38.998Z,46.36
2018-11-14T00:39:04.978Z,46.33
2018-11-14T00:41:30.967Z,46.22
2018-11-14T00:43:56.956Z,46.22
2018-11-14T00:46:22.962Z,46.18
2018-11-14T00:48:48.952Z,46.16
2018-11-14T00:51:14.935Z,46.12
2018-11-14T00:53:40.957Z,46.10
2018-11-14T00:56:06.957Z,46.09
2018-11-14T00:58:33.010Z,45.96
2018-11-14T01:00:59.018Z,45.92
2018-11-14T01:03:25.022Z,45.95
2018-11-14T01:05:51.027Z,45.93
2018-11-14T01:08:17.030Z,45.90
2018-11-14T01:10:43.043Z,45.81
2018-11-14T01:13:09.057Z,45.73
2018-11-14T01:15:35.029Z,45.84
2018-11-14T01:18:01.034Z,45.90
2018-11-14T01:20:27.029Z,45.70
2018-11-14T01:22:53.023Z,45.75
2018-11-14T01:25:19.004Z,45.65
2018-11-14T01:27:44.988Z,45.51
2018-11-14T01:30:10.972Z,45.63
2018-11-14T01:32:36.961Z,45.53
2018-11-14T01:35:02.998Z,45.48
2018-11-14T01:37:29.010Z,45.44
2018-11-14T01:39:55.033Z,45.64
2018-11-14T01:42:21.015Z,45.42
2018-11-14T01:44:47.019Z,45.35
2018-11-14T01:47:13.061Z,45.29
2018-11-14T01:49:39.055Z,45.46
2018-11-14T01:52:05.158Z,45.34
2018-11-14T01:54:31.147Z,45.20
2018-11-14T01:56:57.139Z,45.30
2018-11-14T01:59:23.123Z,45.23
2018-11-14T02:01:49.132Z,45.18
2018-11-14T02:04:15.116Z,45.13
2018-11-14T02:06:41.096Z,45.12
2018-11-14T02:09:07.153Z,45.09
2018-11-14T02:11:33.150Z,45.19
2018-11-14T02:13:59.128Z,44.99
2018-11-14T02:16:25.119Z,45.00
2018-11-14T02:18:51.127Z,45.07
2018-11-14T02:21:17.134Z,44.97
2018-11-14T02:23:43.117Z,44.87
2018-11-14T02:26:09.105Z,45.03
2018-11-14T02:28:35.087Z,44.89
2018-11-14T02:31:01.107Z,44.85
2018-11-14T02:33:27.102Z,44.75
2018-11-14T02:35:53.112Z,44.63
2018-11-14T02:38:19.100Z,44.71
2018-11-14T02:40:45.116Z,44.66
2018-11-14T02:43:11.120Z,44.76
2018-11-14T02:45:37.134Z,44.62
2018-11-14T02:48:03.133Z,44.45
2018-11-14T02:50:29.172Z,44.73
2018-11-14T02:52:55.160Z,44.70
2018-11-14T02:55:21.158Z,44.56
2018-11-14T02:57:47.204Z,44.50
2018-11-14T03:00:13.194Z,44.48
2018-11-14T03:02:39.173Z,44.48
2018-11-14T03:05:05.171Z,44.32
2018-11-14T03:07:31.153Z,44.35
2018-11-14T03:09:57.137Z,44.41
2018-11-14T03:12:23.165Z,44.32
2018-11-14T03:14:49.156Z,44.50
2018-11-14T03:17:15.161Z,44.26
2018-11-14T03:19:41.146Z,44.23
2018-11-14T03:22:07.178Z,44.36
2018-11-14T03:24:33.202Z,44.19
2018-11-14T03:26:59.212Z,44.31
2018-11-14T03:29:25.225Z,44.16
2018-11-14T03:31:51.202Z,44.22
2018-11-14T03:34:17.209Z,44.05
2018-11-14T03:36:43.219Z,44.25
2018-11-14T03:39:09.199Z,44.06
2018-11-14T03:41:35.203Z,44.03
2018-11-14T03:44:01.206Z,43.98
2018-11-14T03:46:27.193Z,43.79
2018-11-14T03:48:53.207Z,43.96
2018-11-14T03:51:19.193Z,44.03
2018-11-14T03:53:45.177Z,44.18
2018-11-14T03:56:11.182Z,44.07
2018-11-14T03:58:37.188Z,44.31
2018-11-14T04:01:03.194Z,43.91
2018-11-14T04:03:29.192Z,43.84
2018-11-14T04:05:55.201Z,44.02
2018-11-14T04:08:21.211Z,43.93
2018-11-14T04:10:47.183Z,44.06
2018-11-14T04:13:13.191Z,43.95
2018-11-14T04:15:39.198Z,44.00
2018-11-14T04:18:05.205Z,44.17
2018-11-14T04:20:31.217Z,44.01
2018-11-14T04:22:57.216Z,44.15
2018-11-14T04:25:23.196Z,44.11
2018-11-14T04:27:49.183Z,44.11
2018-11-14T04:30:15.164Z,43.78
2018-11-14T04:32:41.154Z,43.89
2018-11-14T04:35:07.171Z,43.90
2018-11-14T04:37:33.152Z,43.96
2018-11-14T04:39:59.167Z,43.84
2018-11-14T04:42:25.179Z,44.01
2018-11-14T04:44:51.183Z,43.87
2018-11-14T04:47:17.210Z,43.96
2018-11-14T04:49:43.194Z,43.90
2018-11-14T04:52:09.193Z,43.73
2018-11-14T04:54:35.217Z,43.79
2018-11-14T04:57:01.222Z,44.05
2018-11-14T04:59:27.206Z,44.04
2018-11-14T05:01:53.218Z,43.87
2018-11-14T05:04:19.246Z,43.87
2018-11-14T05:06:45.289Z,43.94
2018-11-14T05:09:11.290Z,44.07
2018-11-14T05:11:37.330Z,44.00
2018-11-14T05:14:03.315Z,44.13
2018-11-14T05:16:29.323Z,44.22
2018-11-14T05:18:55.329Z,44.25
2018-11-14T05:21:21.323Z,44.36
2018-11-14T05:23:47.308Z,44.44
2018-11-14T05:26:13.300Z,44.47
2018-11-14T05:28:39.353Z,44.53
2018-11-14T05:31:05.363Z,44.51
2018-11-14T05:33:31.343Z,44.52
2018-11-14T05:35:57.359Z,44.52
2018-11-14T05:38:23.345Z,44.49
2018-11-14T05:40:49.337Z,44.50
2018-11-14T05:43:15.378Z,44.47
2018-11-14T05:45:41.562Z,44.42
2018-11-14T05:48:07.408Z,44.29
2018-11-14T05:50:33.388Z,44.18
2018-11-14T05:52:59.397Z,44.42
2018-11-14T05:55:25.805Z,44.66
2018-11-14T05:57:51.792Z,44.50
2018-11-14T06:00:17.788Z,44.48
2018-11-14T06:02:43.802Z,44.53
2018-11-14T06:05:09.850Z,44.71
2018-11-14T06:07:35.925Z,44.91
2018-11-14T06:10:01.871Z,44.99
2018-11-14T06:12:27.887Z,45.08
2018-11-14T06:14:53.939Z,45.24
2018-11-14T06:17:19.951Z,45.38
2018-11-14T06:19:45.966Z,45.45
2018-11-14T06:22:11.952Z,45.58
2018-11-14T06:24:37.951Z,45.93
2018-11-14T06:27:03.995Z,46.16
2018-11-14T06:29:30.055Z,46.37
2018-11-14T06:31:56.038Z,46.39
2018-11-14T06:34:22.062Z,46.67
2018-11-14T06:36:48.089Z,46.68
2018-11-14T06:39:14.072Z,46.71
2018-11-14T06:41:40.211Z,46.67
2018-11-14T06:44:06.168Z,46.81
2018-11-14T06:46:32.184Z,46.84
2018-11-14T06:48:58.185Z,46.82
2018-11-14T06:51:24.197Z,46.93
2018-11-14T06:53:50.289Z,47.13
2018-11-14T06:56:16.291Z,47.19
2018-11-14T06:58:42.322Z,47.29
2018-11-14T07:01:08.349Z,48.61
2018-11-14T07:03:34.360Z,48.60
2018-11-14T07:06:00.520Z,48.56
2018-11-14T07:08:26.383Z,48.01
2018-11-14T07:10:53.061Z,48.58
2018-11-14T07:13:19.023Z,48.82
2018-11-14T07:15:45.040Z,48.94
2018-11-14T07:18:11.235Z,48.76
2018-11-14T07:20:37.258Z,49.03
2018-11-14T07:23:03.247Z,49.23
2018-11-14T07:25:31.529Z,49.16
2018-11-14T07:27:57.520Z,48.79
2018-11-14T07:30:23.509Z,48.65
2018-11-14T07:32:49.594Z,48.89
2018-11-14T07:35:15.603Z,48.73
2018-11-14T07:37:41.690Z,48.15
2018-11-14T07:40:07.742Z,47.04
2018-11-14T07:42:33.991Z,47.01
2018-11-14T07:44:59.962Z,47.44
2018-11-14T07:47:25.953Z,47.65
2018-11-14T07:49:52.001Z,47.07
2018-11-14T07:52:17.956Z,47.09
2018-11-14T07:54:44.034Z,47.18
2018-11-14T07:57:09.944Z,47.31
2018-11-14T07:59:36.024Z,47.75
2018-11-14T08:02:02.065Z,49.73
2018-11-14T08:04:28.161Z,48.20
2018-11-14T08:06:54.177Z,47.75
2018-11-14T08:09:20.157Z,47.81
2018-11-14T08:11:46.139Z,48.57
2018-11-14T08:14:12.138Z,47.54
2018-11-14T08:16:38.161Z,47.46
2018-11-14T08:19:04.257Z,47.76
2018-11-14T08:21:30.154Z,48.73
2018-11-14T08:23:56.146Z,48.69
2018-11-14T08:26:22.164Z,48.61
2018-11-14T08:28:48.177Z,49.08
2018-11-14T08:31:14.314Z,48.77
2018-11-14T08:33:40.391Z,48.65
2018-11-14T08:36:06.386Z,48.52
2018-11-14T08:38:32.423Z,48.48
2018-11-14T08:41:01.530Z,48.54
2018-11-14T08:43:27.567Z,48.49
2018-11-14T08:45:53.550Z,48.56
2018-11-14T08:48:19.899Z,48.56
2018-11-14T08:50:57.253Z,48.51
2018-11-14T08:53:17.144Z,48.46
2018-11-14T08:55:45.118Z,48.40
2018-11-14T08:58:11.540Z,48.35
2018-11-14T09:00:37.769Z,48.32
2018-11-14T09:03:03.953Z,48.31
2018-11-14T09:05:33.280Z,48.26
2018-11-14T09:08:06.624Z,48.24
2018-11-14T09:10:32.650Z,48.20
2018-11-14T09:12:59.903Z,48.18
2018-11-14T09:15:25.027Z,48.16
2018-11-14T09:17:51.035Z,48.12
2018-11-14T09:20:21.739Z,48.14
2018-11-14T09:22:53.734Z,48.31
2018-11-14T09:25:19.757Z,48.42
2018-11-14T09:27:46.471Z,48.72
2018-11-14T09:30:12.456Z,48.66
2018-11-14T09:32:38.496Z,48.37
2018-11-14T09:35:04.486Z,48.21
2018-11-14T09:37:30.481Z,48.16
2018-11-14T09:39:56.471Z,48.23
2018-11-14T09:42:22.468Z,47.90
2018-11-14T09:44:48.490Z,47.80
2018-11-14T09:47:14.518Z,47.91
2018-11-14T09:49:40.539Z,47.64
2018-11-14T09:52:06.524Z,47.79
2018-11-14T09:54:32.587Z,47.69
2018-11-14T09:56:58.618Z,47.94
2018-11-14T09:59:24.619Z,47.96
2018-11-14T10:01:50.650Z,47.88
2018-11-14T10:04:16.634Z,47.61
2018-11-14T10:06:42.659Z,47.66
2018-11-14T10:09:08.645Z,47.66
2018-11-14T10:11:34.648Z,47.65
2018-11-14T10:14:00.699Z,47.62
2018-11-14T10:16:26.660Z,47.63
2018-11-14T10:18:52.670Z,47.49
2018-11-14T10:21:18.748Z,47.48
2018-11-14T10:23:44.659Z,47.52
2018-11-14T10:26:10.642Z,47.43
2018-11-14T10:28:36.625Z,47.38
2018-11-14T10:31:02.631Z,47.30
2018-11-14T10:33:28.613Z,47.28
2018-11-14T10:35:54.606Z,47.22
2018-11-14T10:38:20.613Z,47.15
2018-11-14T10:40:46.613Z,47.17
2018-11-14T10:43:12.600Z,47.11
2018-11-14T10:45:38.585Z,47.10
2018-11-14T10:48:04.594Z,47.04
2018-11-14T10:50:30.612Z,46.99
2018-11-14T10:52:56.626Z,46.95
2018-11-14T10:55:22.671Z,46.86
2018-11-14T10:57:48.674Z,46.86
2018-11-14T11:00:14.645Z,46.76
2018-11-14T11:02:40.701Z,46.78
2018-11-14T11:05:06.694Z,46.68
2018-11-14T11:07:32.675Z,46.72
2018-11-14T11:09:58.688Z,46.70
2018-11-14T11:12:24.676Z,46.65
2018-11-14T11:14:50.705Z,46.61
2018-11-14T11:17:16.731Z,46.61
2018-11-14T11:19:42.755Z,46.56
2018-11-14T11:22:08.781Z,46.51
2018-11-14T11:24:34.765Z,46.49
2018-11-14T11:27:00.750Z,46.50
2018-11-14T11:29:26.734Z,46.48
2018-11-14T11:31:52.804Z,46.40
2018-11-14T11:34:18.742Z,46.39
2018-11-14T11:36:44.772Z,46.41
2018-11-14T11:39:10.779Z,46.31
2018-11-14T11:41:36.806Z,46.29
2018-11-14T11:44:02.806Z,46.28
2018-11-14T11:46:28.799Z,46.23
2018-11-14T11:48:54.802Z,46.17
2018-11-14T11:51:20.809Z,46.37
2018-11-14T11:53:46.823Z,46.19
2018-11-14T11:56:12.877Z,46.14
2018-11-14T11:58:38.890Z,46.17
2018-11-14T12:01:04.897Z,46.17
2018-11-14T12:03:30.876Z,46.09
2018-11-14T12:05:56.998Z,46.09
2018-11-14T12:08:22.861Z,46.11
2018-11-14T12:10:48.963Z,46.20
2018-11-14T12:13:14.910Z,46.09
2018-11-14T12:15:40.865Z,46.02
2018-11-14T12:18:06.878Z,46.04
2018-11-14T12:20:32.850Z,45.95
2018-11-14T12:22:58.840Z,46.01
2018-11-14T12:25:24.844Z,46.07
2018-11-14T12:27:50.829Z,46.01
2018-11-14T12:30:16.923Z,45.99
2018-11-14T12:32:42.907Z,45.98
2018-11-14T12:35:08.935Z,45.94
2018-11-14T12:37:34.898Z,45.91
2018-11-14T12:40:00.909Z,45.93
2018-11-14T12:42:26.900Z,45.88
2018-11-14T12:44:52.965Z,45.84
2018-11-14T12:47:18.952Z,45.90
2018-11-14T12:49:44.993Z,44.78
2018-11-14T12:52:10.976Z,45.30
2018-11-14T12:54:36.984Z,45.41
2018-11-14T12:57:02.985Z,45.92
2018-11-14T12:59:29.000Z,46.19
2018-11-14T13:01:55.017Z,46.25
2018-11-14T13:04:21.026Z,46.32
2018-11-14T13:09:31.305Z,46.52
2018-11-14T13:11:57.306Z,46.57
2018-11-14T13:14:23.318Z,46.47
2018-11-14T13:16:49.324Z,46.73
2018-11-14T13:19:15.401Z,46.84
2018-11-14T13:21:41.414Z,46.86
2018-11-14T13:24:07.418Z,46.87
2018-11-14T13:26:33.426Z,46.81
2018-11-14T13:28:59.552Z,46.85
2018-11-14T13:31:25.442Z,46.81
2018-11-14T13:33:51.454Z,46.87
2018-11-14T13:36:17.476Z,46.94
2018-11-14T13:38:43.484Z,47.06
2018-11-14T13:41:09.489Z,46.99
2018-11-14T13:43:35.572Z,47.07
2018-11-14T13:46:01.595Z,47.05
2018-11-14T13:48:27.634Z,47.04
2018-11-14T13:50:53.748Z,47.01
2018-11-14T13:53:19.649Z,46.98
2018-11-14T13:55:45.695Z,46.99
2018-11-14T13:58:11.707Z,46.85
2018-11-14T14:00:37.716Z,46.89
2018-11-14T14:03:03.726Z,46.87
2018-11-14T14:05:29.729Z,46.92
2018-11-14T14:07:55.786Z,46.92
2018-11-14T14:10:21.756Z,46.87
2018-11-14T14:12:47.797Z,46.84
2018-11-14T14:15:13.804Z,46.79
2018-11-14T14:17:39.812Z,46.78
2018-11-14T14:20:05.823Z,46.80
2018-11-14T14:22:31.870Z,46.68
2018-11-14T14:24:57.870Z,46.67
2018-11-14T14:27:23.884Z,46.58
2018-11-14T14:29:49.925Z,46.57
2018-11-14T14:32:15.932Z,46.52
2018-11-14T14:34:41.937Z,46.52
2018-11-14T14:37:08.068Z,46.48
2018-11-14T14:39:34.068Z,46.56
2018-11-14T14:42:00.128Z,46.50
2018-11-14T14:44:26.131Z,46.49
2018-11-14T14:46:52.305Z,46.54
2018-11-14T14:49:18.319Z,46.48
2018-11-14T14:51:44.328Z,46.43
2018-11-14T14:54:10.332Z,46.49
2018-11-14T14:56:36.380Z,46.41
2018-11-14T14:59:02.558Z,46.40
2018-11-14T15:01:28.536Z,46.45
2018-11-14T15:03:54.540Z,46.24
2018-11-14T15:06:20.580Z,46.24
2018-11-14T15:08:46.579Z,46.27
2018-11-14T15:11:12.589Z,46.32
2018-11-14T15:13:38.608Z,46.28
2018-11-14T15:16:04.623Z,46.21
2018-11-14T15:18:30.752Z,46.22
2018-11-14T15:20:56.768Z,46.23
2018-11-14T15:23:22.798Z,46.16
2018-11-14T15:25:48.820Z,46.11
2018-11-14T15:28:14.868Z,46.08
2018-11-14T15:30:40.842Z,46.02
2018-11-14T15:33:06.865Z,46.07
2018-11-14T15:35:32.897Z,46.10
2018-11-14T15:37:58.893Z,46.07
2018-11-14T15:40:25.050Z,46.08
2018-11-14T15:42:51.158Z,45.97
2018-11-14T15:45:17.064Z,45.98
2018-11-14T15:47:43.085Z,45.94
2018-11-14T15:50:09.121Z,45.95
2018-11-14T15:52:35.157Z,45.89
2018-11-14T15:55:01.168Z,45.91
2018-11-14T15:57:27.169Z,45.88
2018-11-14T15:59:53.237Z,45.80
2018-11-14T16:02:19.240Z,45.83
2018-11-14T16:04:45.289Z,45.81
2018-11-14T16:07:11.286Z,45.77
2018-11-14T16:09:37.297Z,45.80
2018-11-14T16:12:03.320Z,45.97
2018-11-14T16:14:29.325Z,45.93
2018-11-14T16:16:55.325Z,46.07
2018-11-14T16:19:21.342Z,45.91
2018-11-14T16:21:47.350Z,45.91
2018-11-14T16:24:13.356Z,45.82
2018-11-14T16:26:39.371Z,45.79
2018-11-14T16:29:05.380Z,45.91
2018-11-14T16:31:31.425Z,45.85
2018-11-14T16:33:57.398Z,45.81
2018-11-14T16:36:23.401Z,45.87
2018-11-14T16:38:49.464Z,46.01
2018-11-14T16:41:15.477Z,46.05
2018-11-14T16:43:41.482Z,46.07
2018-11-14T16:46:07.486Z,46.29
2018-11-14T16:48:33.493Z,46.62
2018-11-14T16:50:59.504Z,46.66
2018-11-14T16:53:25.519Z,46.79
2018-11-14T16:55:51.617Z,47.01
2018-11-14T16:58:17.540Z,47.26
2018-11-14T17:00:43.546Z,47.50
2018-11-14T17:03:09.573Z,47.49
2018-11-14T17:05:35.785Z,47.93
2018-11-14T17:08:01.839Z,48.11
2018-11-14T17:10:27.825Z,48.31
2018-11-14T17:12:53.849Z,48.33
2018-11-14T17:15:19.859Z,48.38
2018-11-14T17:17:45.983Z,48.40
2018-11-14T17:20:12.010Z,48.07
2018-11-14T17:22:38.052Z,48.43
2018-11-14T17:25:04.083Z,48.18
2018-11-14T17:27:30.070Z,48.63
2018-11-14T17:29:56.117Z,48.53
2018-11-14T17:32:22.124Z,48.49
2018-11-14T17:34:48.110Z,48.22
2018-11-14T17:37:14.109Z,48.13
2018-11-14T17:39:40.092Z,47.97
2018-11-14T17:42:06.277Z,47.89
2018-11-14T17:44:32.062Z,48.58
2018-11-14T17:46:58.079Z,48.66
2018-11-14T17:49:24.101Z,48.40
2018-11-14T17:51:50.099Z,48.22
2018-11-14T17:54:16.242Z,47.94
2018-11-14T17:56:42.367Z,47.66
2018-11-14T17:59:08.384Z,47.74
2018-11-14T18:01:34.501Z,47.54
2018-11-14T18:04:00.624Z,47.49
2018-11-14T18:06:26.681Z,47.43
2018-11-14T18:08:52.760Z,47.43
2018-11-14T18:11:18.754Z,47.87
2018-11-14T18:13:44.746Z,48.20
2018-11-14T18:16:11.789Z,47.90
2018-11-14T18:18:37.805Z,47.98
2018-11-14T18:21:03.812Z,47.89
2018-11-14T18:23:29.870Z,47.69
2018-11-14T18:25:55.877Z,47.75
2018-11-14T18:28:21.890Z,47.90
2018-11-14T18:30:48.020Z,47.90
2018-11-14T18:33:13.904Z,47.85
2018-11-14T18:35:39.884Z,47.84
2018-11-14T18:38:05.903Z,47.53
2018-11-14T18:40:31.926Z,47.53
2018-11-14T18:42:57.934Z,47.69
2018-11-14T18:45:23.911Z,47.83
2018-11-14T18:47:49.901Z,47.87
2018-11-14T18:50:15.907Z,48.00
2018-11-14T18:52:41.907Z,48.07
2018-11-14T18:55:07.917Z,47.96
2018-11-14T18:57:33.977Z,47.91
2018-11-14T18:59:59.997Z,48.00
2018-11-14T19:02:25.999Z,48.20
2018-11-14T19:04:52.014Z,48.30
2018-11-14T19:07:18.035Z,48.22
2018-11-14T19:09:44.024Z,48.25
2018-11-14T19:12:10.030Z,48.15
2018-11-14T19:14:36.019Z,48.09
2018-11-14T19:17:02.308Z,47.97
2018-11-14T19:19:28.298Z,47.79
2018-11-14T19:21:54.284Z,47.80
2018-11-14T19:24:20.283Z,47.60
2018-11-14T19:26:46.260Z,47.58
2018-11-14T19:29:12.256Z,47.62
2018-11-14T19:31:38.230Z,47.54
2018-11-14T19:34:04.228Z,47.59
2018-11-14T19:36:30.213Z,47.48
2018-11-14T19:38:56.207Z,47.51
2018-11-14T19:41:22.209Z,47.37
2018-11-14T19:43:48.204Z,47.35
2018-11-14T19:46:14.213Z,47.19
2018-11-14T19:48:40.207Z,47.18
2018-11-14T19:51:06.226Z,47.02
2018-11-14T19:53:32.370Z,47.21
2018-11-14T19:55:58.442Z,47.18
2018-11-14T19:58:24.364Z,47.04
2018-11-14T20:00:50.380Z,47.11
2018-11-14T20:03:16.398Z,46.92
2018-11-14T20:05:42.379Z,47.17
2018-11-14T20:08:08.368Z,47.28
2018-11-14T20:10:34.413Z,47.29
2018-11-14T20:13:00.347Z,47.23
2018-11-14T20:15:26.347Z,47.40
2018-11-14T20:17:52.362Z,47.37
2018-11-14T20:20:18.366Z,47.40
2018-11-14T20:22:44.377Z,47.52
2018-11-14T20:25:10.421Z,47.54
2018-11-14T20:27:36.400Z,47.50
2018-11-14T20:30:02.393Z,47.47
2018-11-14T20:32:28.440Z,47.44
2018-11-14T20:34:54.469Z,47.50
2018-11-14T20:37:20.533Z,47.61
2018-11-14T20:39:46.474Z,47.59
2018-11-14T20:42:12.615Z,47.62
2018-11-14T20:44:38.604Z,47.58
2018-11-14T20:47:04.616Z,47.64
2018-11-14T20:49:30.611Z,47.51
2018-11-14T20:51:56.635Z,47.53
2018-11-14T20:54:22.636Z,47.53
2018-11-14T20:56:48.623Z,47.49
2018-11-14T20:59:14.600Z,47.67
2018-11-14T21:01:40.880Z,47.66
2018-11-14T21:04:06.887Z,47.66
2018-11-14T21:06:32.889Z,47.48
2018-11-14T21:08:58.868Z,47.43
2018-11-14T21:11:24.854Z,47.43
2018-11-14T21:13:50.962Z,47.37
2018-11-14T21:16:16.966Z,47.22
2018-11-14T21:18:42.980Z,47.16
2018-11-14T21:21:08.987Z,47.00
2018-11-14T21:23:35.005Z,46.84
2018-11-14T21:26:01.029Z,46.66
2018-11-14T21:28:27.020Z,46.48
2018-11-14T21:30:53.010Z,47.25
2018-11-14T21:33:19.036Z,47.69
2018-11-14T21:35:45.053Z,48.04
2018-11-14T21:38:11.084Z,48.07
2018-11-14T21:40:37.044Z,48.03
2018-11-14T21:43:03.040Z,47.81
2018-11-14T21:45:29.023Z,47.81
2018-11-14T21:47:55.036Z,47.75
2018-11-14T21:50:21.133Z,47.73
2018-11-14T21:52:47.140Z,47.72
2018-11-14T21:57:39.152Z,47.66
2018-11-14T22:00:05.178Z,47.63
2018-11-14T22:02:31.194Z,47.57
2018-11-14T22:04:57.198Z,47.51
2018-11-14T22:07:23.209Z,47.44
2018-11-14T22:09:49.225Z,47.40
2018-11-14T22:12:15.242Z,47.34
2018-11-14T22:14:41.268Z,47.31
2018-11-14T22:17:07.282Z,47.29
2018-11-14T22:19:33.342Z,47.21
2018-11-14T22:21:59.354Z,47.16
2018-11-14T22:24:25.473Z,47.15
2018-11-14T22:26:51.490Z,47.07
2018-11-14T22:29:17.510Z,46.97
2018-11-14T22:31:43.553Z,46.98
2018-11-14T22:34:09.552Z,46.90
2018-11-14T22:36:35.565Z,46.82
2018-11-14T22:39:01.581Z,46.85
2018-11-14T22:41:27.605Z,46.77
2018-11-14T22:43:53.618Z,46.66
2018-11-14T22:46:19.597Z,46.59
2018-11-14T22:48:45.584Z,46.46
2018-11-14T22:51:11.575Z,46.42
2018-11-14T22:53:37.570Z,46.36
2018-11-14T22:56:03.554Z,46.46
2018-11-14T22:58:29.546Z,46.36
2018-11-14T23:00:55.622Z,46.44
2018-11-14T23:03:21.627Z,46.27
2018-11-14T23:05:47.641Z,46.35
2018-11-14T23:08:13.647Z,46.29
2018-11-14T23:10:39.642Z,46.34
2018-11-14T23:13:05.645Z,46.26
2018-11-14T23:15:31.694Z,46.23
2018-11-14T23:17:57.621Z,46.22
2018-11-14T23:20:23.642Z,46.32
2018-11-14T23:22:49.617Z,46.19
2018-11-14T23:25:15.631Z,46.08
2018-11-14T23:27:41.615Z,46.16
2018-11-14T23:30:07.654Z,46.11
2018-11-14T23:32:33.633Z,46.07
2018-11-14T23:34:59.640Z,46.13
2018-11-14T23:37:25.653Z,46.03
2018-11-14T23:39:51.636Z,46.01
2018-11-14T23:42:17.653Z,45.93
2018-11-14T23:44:43.697Z,45.88
2018-11-14T23:47:09.680Z,45.84
2018-11-14T23:49:35.676Z,45.80
2018-11-14T23:52:01.687Z,45.76
2018-11-14T23:54:27.670Z,45.70
2018-11-14T23:56:53.655Z,45.70
2018-11-14T23:59:19.661Z,45.69
